createdAt,value
2023-09-28T00:00:10.823Z,5.05
2023-09-28T00:00:22.229Z,5.00
2023-09-28T00:00:33.767Z,5.03
2023-09-28T00:00:45.314Z,5.18
2023-09-28T00:00:56.789Z,5.15
2023-09-28T00:01:12.477Z,5.18
2023-09-28T00:01:23.936Z,5.15
2023-09-28T00:01:35.998Z,5.07
2023-09-28T00:01:47.899Z,5.03
2023-09-28T00:01:59.906Z,4.85
2023-09-28T00:02:11.483Z,4.95
2023-09-28T00:02:26.138Z,5.30
2023-09-28T00:02:37.668Z,5.47
2023-09-28T00:02:49.860Z,5.30
2023-09-28T00:03:01.378Z,5.43
2023-09-28T00:03:12.984Z,5.78
2023-09-28T00:03:24.551Z,5.72
2023-09-28T00:03:36.005Z,5.22
2023-09-28T00:03:47.801Z,4.60
2023-09-28T00:03:59.692Z,4.88
2023-09-28T00:04:11.188Z,5.00
2023-09-28T00:04:22.637Z,4.88
2023-09-28T00:04:34.115Z,4.75
2023-09-28T00:04:45.532Z,5.07
2023-09-28T00:04:57.462Z,5.20
2023-09-28T00:05:09.343Z,5.28
2023-09-28T00:05:21.313Z,5.10
2023-09-28T00:05:33.129Z,4.88
2023-09-28T00:05:44.608Z,4.90
2023-09-28T00:05:56.026Z,4.95
2023-09-28T00:06:07.615Z,5.30
2023-09-28T00:06:19.466Z,5.53
2023-09-28T00:06:30.903Z,5.20
2023-09-28T00:06:42.414Z,4.88
2023-09-28T00:06:53.844Z,4.53
2023-09-28T00:07:05.337Z,4.90
2023-09-28T00:07:16.858Z,4.95
2023-09-28T00:07:28.686Z,5.25
2023-09-28T00:07:44.259Z,5.50
2023-09-28T00:07:56.044Z,5.13
2023-09-28T00:08:07.839Z,4.78
2023-09-28T00:08:22.371Z,4.93
2023-09-28T00:08:33.748Z,4.72
2023-09-28T00:08:45.214Z,4.90
2023-09-28T00:08:56.607Z,5.38
2023-09-28T00:09:08.002Z,5.45
2023-09-28T00:09:19.407Z,5.45
2023-09-28T00:09:30.788Z,5.70
2023-09-28T00:09:42.331Z,5.78
2023-09-28T00:09:53.815Z,5.60
2023-09-28T00:10:06.977Z,5.30
2023-09-28T00:10:19.177Z,5.40
2023-09-28T00:10:30.739Z,5.68
2023-09-28T00:10:42.642Z,5.30
2023-09-28T00:10:54.218Z,5.00
2023-09-28T00:11:06.117Z,5.22
2023-09-28T00:11:17.537Z,5.30
2023-09-28T00:11:29.050Z,5.80
2023-09-28T00:11:40.568Z,5.60
2023-09-28T00:11:52.022Z,5.43
2023-09-28T00:12:03.603Z,5.60
2023-09-28T00:12:15.796Z,5.80
2023-09-28T00:12:27.190Z,5.70
2023-09-28T00:12:57.005Z,5.25
2023-09-28T00:13:08.482Z,5.30
2023-09-28T00:13:19.863Z,5.10
2023-09-28T00:13:31.350Z,5.30
2023-09-28T00:13:42.843Z,5.10
2023-09-28T00:13:54.622Z,5.03
2023-09-28T00:14:06.242Z,5.22
2023-09-28T00:14:17.752Z,5.47
2023-09-28T00:14:29.463Z,5.43
2023-09-28T00:14:40.900Z,5.37
2023-09-28T00:14:53.026Z,5.47
2023-09-28T00:15:04.751Z,5.47
2023-09-28T00:15:17.266Z,5.32
2023-09-28T00:15:28.893Z,5.00
2023-09-28T00:15:40.406Z,5.28
2023-09-28T00:15:51.856Z,5.65
2023-09-28T00:16:03.591Z,6.00
2023-09-28T00:16:15.013Z,5.70
2023-09-28T00:16:26.748Z,5.53
2023-09-28T00:16:38.259Z,5.68
2023-09-28T00:16:49.718Z,5.85
2023-09-28T00:17:03.089Z,5.68
2023-09-28T00:17:14.762Z,5.43
2023-09-28T00:17:26.399Z,5.32
2023-09-28T00:17:39.731Z,5.38
2023-09-28T00:17:51.606Z,5.45
2023-09-28T00:18:05.615Z,5.60
2023-09-28T00:18:17.112Z,5.38
2023-09-28T00:18:28.623Z,5.43
2023-09-28T00:18:40.015Z,5.55
2023-09-28T00:18:51.402Z,5.55
2023-09-28T00:19:02.844Z,5.38
2023-09-28T00:19:14.333Z,5.40
2023-09-28T00:19:28.618Z,5.28
2023-09-28T00:19:40.079Z,5.45
2023-09-28T00:19:51.641Z,5.60
2023-09-28T00:20:03.183Z,5.47
2023-09-28T00:20:16.919Z,5.63
2023-09-28T00:20:28.771Z,5.47
2023-09-28T00:20:40.357Z,5.20
2023-09-28T00:20:51.985Z,5.18
2023-09-28T00:21:03.416Z,5.38
2023-09-28T00:21:14.859Z,5.25
2023-09-28T00:21:26.335Z,5.25
2023-09-28T00:21:37.748Z,5.03
2023-09-28T00:21:49.124Z,5.07
2023-09-28T00:22:00.529Z,5.03
2023-09-28T00:22:11.908Z,5.45
2023-09-28T00:22:23.636Z,5.60
2023-09-28T00:22:35.144Z,5.43
2023-09-28T00:22:47.215Z,5.60
2023-09-28T00:22:58.858Z,5.43
2023-09-28T00:23:10.763Z,5.38
2023-09-28T00:23:22.216Z,5.38
2023-09-28T00:23:37.413Z,5.57
2023-09-28T00:23:48.824Z,5.40
2023-09-28T00:24:00.280Z,5.10
2023-09-28T00:24:11.708Z,5.28
2023-09-28T00:24:25.563Z,5.25
2023-09-28T00:24:40.171Z,5.32
2023-09-28T00:24:51.670Z,5.28
2023-09-28T00:25:03.211Z,5.43
2023-09-28T00:25:15.826Z,5.65
2023-09-28T00:25:27.228Z,5.53
2023-09-28T00:25:38.720Z,5.38
2023-09-28T00:25:50.161Z,5.68
2023-09-28T00:26:01.683Z,5.47
2023-09-28T00:26:13.194Z,5.40
2023-09-28T00:26:24.699Z,5.40
2023-09-28T00:26:36.857Z,5.50
2023-09-28T00:26:55.584Z,5.60
2023-09-28T00:27:07.045Z,5.53
2023-09-28T00:27:18.554Z,5.35
2023-09-28T00:27:29.988Z,5.40
2023-09-28T00:27:44.225Z,5.50
2023-09-28T00:27:58.722Z,5.90
2023-09-28T00:28:10.199Z,5.60
2023-09-28T00:28:21.637Z,5.15
2023-09-28T00:28:33.155Z,5.20
2023-09-28T00:28:44.576Z,5.40
2023-09-28T00:28:56.321Z,5.78
2023-09-28T00:29:07.880Z,6.00
2023-09-28T00:29:19.532Z,5.87
2023-09-28T00:29:31.075Z,5.45
2023-09-28T00:29:42.571Z,5.38
2023-09-28T00:29:53.990Z,5.40
2023-09-28T00:30:08.973Z,5.07
2023-09-28T00:30:22.950Z,5.45
2023-09-28T00:30:34.455Z,5.40
2023-09-28T00:30:46.031Z,5.32
2023-09-28T00:30:57.496Z,5.43
2023-09-28T00:31:09.428Z,5.32
2023-09-28T00:31:20.947Z,5.68
2023-09-28T00:31:32.600Z,5.55
2023-09-28T00:31:44.140Z,5.55
2023-09-28T00:31:55.612Z,5.78
2023-09-28T00:32:07.529Z,5.82
2023-09-28T00:32:18.988Z,5.45
2023-09-28T00:32:30.421Z,5.47
2023-09-28T00:32:42.159Z,5.90
2023-09-28T00:32:56.654Z,6.18
2023-09-28T00:33:08.305Z,6.38
2023-09-28T00:33:23.138Z,6.80
2023-09-28T00:33:34.745Z,7.07
2023-09-28T00:33:46.177Z,6.72
2023-09-28T00:33:57.615Z,6.35
2023-09-28T00:34:09.074Z,6.43
2023-09-28T00:34:20.588Z,7.20
2023-09-28T00:34:32.094Z,7.65
2023-09-28T00:34:43.587Z,7.78
2023-09-28T00:34:55.346Z,7.63
2023-09-28T00:35:07.355Z,7.03
2023-09-28T00:35:19.400Z,7.18
2023-09-28T00:35:33.886Z,7.55
2023-09-28T00:35:45.394Z,7.07
2023-09-28T00:35:56.792Z,6.60
2023-09-28T00:36:08.188Z,7.30
2023-09-28T00:36:19.646Z,7.68
2023-09-28T00:36:31.030Z,7.53
2023-09-28T00:36:42.503Z,7.07
2023-09-28T00:36:53.939Z,6.88
2023-09-28T00:37:05.398Z,6.72
2023-09-28T00:37:16.785Z,6.85
2023-09-28T00:37:28.309Z,6.97
2023-09-28T00:37:43.545Z,7.20
2023-09-28T00:37:55.167Z,7.05
2023-09-28T00:38:06.732Z,7.10
2023-09-28T00:38:18.223Z,7.60
2023-09-28T00:38:29.733Z,7.60
2023-09-28T00:38:41.156Z,7.20
2023-09-28T00:38:52.599Z,7.25
2023-09-28T00:39:04.098Z,7.10
2023-09-28T00:39:15.580Z,6.45
2023-09-28T00:39:27.024Z,6.10
2023-09-28T00:39:38.485Z,6.07
2023-09-28T00:39:52.996Z,6.50
2023-09-28T00:40:04.995Z,6.90
2023-09-28T00:40:17.615Z,6.85
2023-09-28T00:40:29.052Z,6.80
2023-09-28T00:40:40.997Z,6.60
2023-09-28T00:40:52.552Z,6.53
2023-09-28T00:41:04.039Z,6.10
2023-09-28T00:41:15.585Z,6.18
2023-09-28T00:41:27.081Z,6.45
2023-09-28T00:41:38.973Z,6.50
2023-09-28T00:41:50.400Z,6.47
2023-09-28T00:42:02.018Z,6.45
2023-09-28T00:42:13.415Z,6.72
2023-09-28T00:42:24.761Z,7.07
2023-09-28T00:42:36.253Z,7.00
2023-09-28T00:42:51.779Z,6.47
2023-09-28T00:43:03.308Z,6.05
2023-09-28T00:43:14.798Z,6.13
2023-09-28T00:43:27.503Z,5.97
2023-09-28T00:43:39.006Z,6.25
2023-09-28T00:43:50.463Z,6.40
2023-09-28T00:44:01.936Z,6.45
2023-09-28T00:44:13.673Z,6.03
2023-09-28T00:44:25.199Z,5.50
2023-09-28T00:44:36.624Z,5.50
2023-09-28T00:44:48.196Z,5.13
2023-09-28T00:44:59.668Z,5.15
2023-09-28T00:45:11.396Z,5.40
2023-09-28T00:45:24.162Z,5.60
2023-09-28T00:45:36.016Z,5.30
2023-09-28T00:45:47.396Z,5.05
2023-09-28T00:45:59.537Z,5.00
2023-09-28T00:46:15.486Z,5.40
2023-09-28T00:46:32.653Z,6.00
2023-09-28T00:46:44.751Z,5.72
2023-09-28T00:46:56.717Z,5.30
2023-09-28T00:47:09.402Z,5.50
2023-09-28T00:47:21.599Z,5.70
2023-09-28T00:47:33.572Z,5.72
2023-09-28T00:47:45.470Z,5.72
2023-09-28T00:48:03.048Z,5.47
2023-09-28T00:48:14.573Z,5.40
2023-09-28T00:48:26.269Z,5.40
2023-09-28T00:48:48.624Z,5.30
2023-09-28T00:49:02.495Z,5.40
2023-09-28T00:49:17.176Z,5.28
2023-09-28T00:49:28.644Z,5.03
2023-09-28T00:49:40.390Z,5.13
2023-09-28T00:49:53.407Z,5.68
2023-09-28T00:50:15.642Z,5.82
2023-09-28T00:50:29.225Z,5.70
2023-09-28T00:50:40.654Z,5.22
2023-09-28T00:50:52.987Z,5.20
2023-09-28T00:51:04.762Z,5.38
2023-09-28T00:51:16.364Z,5.63
2023-09-28T00:51:27.868Z,5.50
2023-09-28T00:51:39.363Z,5.60
2023-09-28T00:51:51.222Z,5.50
2023-09-28T00:52:02.648Z,5.47
2023-09-28T00:52:14.660Z,5.45
2023-09-28T00:52:26.099Z,5.40
2023-09-28T00:52:39.734Z,5.45
2023-09-28T00:53:01.037Z,5.22
2023-09-28T00:53:13.567Z,5.00
2023-09-28T00:53:25.040Z,5.32
2023-09-28T00:53:36.536Z,5.28
2023-09-28T00:53:48.202Z,5.63
2023-09-28T00:54:01.570Z,5.50
2023-09-28T00:54:13.033Z,5.03
2023-09-28T00:54:24.701Z,4.97
2023-09-28T00:54:37.069Z,5.10
2023-09-28T00:54:49.280Z,5.22
2023-09-28T00:55:00.827Z,5.20
2023-09-28T00:55:14.361Z,5.18
2023-09-28T00:55:26.274Z,5.10
2023-09-28T00:55:39.041Z,5.32
2023-09-28T00:55:51.427Z,5.57
2023-09-28T00:56:03.280Z,5.55
2023-09-28T00:56:15.002Z,5.35
2023-09-28T00:56:26.830Z,5.28
2023-09-28T00:56:39.274Z,5.30
2023-09-28T00:56:51.004Z,5.60
2023-09-28T00:57:03.535Z,5.55
2023-09-28T00:57:16.459Z,5.70
2023-09-28T00:57:28.352Z,5.72
2023-09-28T00:57:40.567Z,5.55
2023-09-28T00:57:52.656Z,5.55
2023-09-28T00:58:05.764Z,5.30
2023-09-28T00:58:17.297Z,5.13
2023-09-28T00:58:28.811Z,5.28
2023-09-28T00:58:40.724Z,5.80
2023-09-28T00:58:55.075Z,6.20
2023-09-28T00:59:07.322Z,5.72
2023-09-28T00:59:18.729Z,5.93
2023-09-28T00:59:30.156Z,5.93
2023-09-28T00:59:41.844Z,5.78
2023-09-28T00:59:53.359Z,5.38
2023-09-28T01:00:06.151Z,5.43
2023-09-28T01:00:18.600Z,5.68
2023-09-28T01:00:30.714Z,5.35
2023-09-28T01:00:42.707Z,5.38
2023-09-28T01:00:54.243Z,5.30
2023-09-28T01:01:06.031Z,5.40
2023-09-28T01:01:17.444Z,4.95
2023-09-28T01:01:28.905Z,5.28
2023-09-28T01:01:40.310Z,5.35
2023-09-28T01:01:51.815Z,5.70
2023-09-28T01:02:03.327Z,5.45
2023-09-28T01:02:14.852Z,5.22
2023-09-28T01:02:26.380Z,5.00
2023-09-28T01:02:37.875Z,5.20
2023-09-28T01:02:51.128Z,5.22
2023-09-28T01:03:04.563Z,5.43
2023-09-28T01:03:16.090Z,5.53
2023-09-28T01:03:27.909Z,5.25
2023-09-28T01:03:39.503Z,5.30
2023-09-28T01:03:51.587Z,5.20
2023-09-28T01:04:03.669Z,5.45
2023-09-28T01:04:15.206Z,5.43
2023-09-28T01:04:26.685Z,5.22
2023-09-28T01:04:38.375Z,5.03
2023-09-28T01:04:49.919Z,5.43
2023-09-28T01:05:01.445Z,5.35
2023-09-28T01:05:13.203Z,5.50
2023-09-28T01:05:26.421Z,5.78
2023-09-28T01:05:37.855Z,5.75
2023-09-28T01:05:49.237Z,5.72
2023-09-28T01:06:00.807Z,5.85
2023-09-28T01:06:12.265Z,6.07
2023-09-28T01:06:23.727Z,5.88
2023-09-28T01:06:35.829Z,6.05
2023-09-28T01:06:47.239Z,5.88
2023-09-28T01:06:58.961Z,5.65
2023-09-28T01:07:13.270Z,5.20
2023-09-28T01:07:27.665Z,5.32
2023-09-28T01:07:39.219Z,5.53
2023-09-28T01:07:50.770Z,5.78
2023-09-28T01:08:14.346Z,5.70
2023-09-28T01:08:25.900Z,5.53
2023-09-28T01:08:37.417Z,5.65
2023-09-28T01:08:48.828Z,5.57
2023-09-28T01:09:00.340Z,5.47
2023-09-28T01:09:11.964Z,5.40
2023-09-28T01:09:23.793Z,5.35
2023-09-28T01:09:35.252Z,5.32
2023-09-28T01:09:46.742Z,5.47
2023-09-28T01:09:58.273Z,5.70
2023-09-28T01:10:10.096Z,5.97
2023-09-28T01:10:24.595Z,5.55
2023-09-28T01:10:37.838Z,5.10
2023-09-28T01:10:49.389Z,5.30
2023-09-28T01:11:00.853Z,5.80
2023-09-28T01:11:12.377Z,5.35
2023-09-28T01:11:24.028Z,5.28
2023-09-28T01:11:35.707Z,5.30
2023-09-28T01:11:47.171Z,5.68
2023-09-28T01:11:58.670Z,5.65
2023-09-28T01:12:10.211Z,5.60
2023-09-28T01:12:21.622Z,5.18
2023-09-28T01:12:33.027Z,4.93
2023-09-28T01:12:44.497Z,5.00
2023-09-28T01:12:56.618Z,5.30
2023-09-28T01:13:09.887Z,5.13
2023-09-28T01:13:21.280Z,5.82
2023-09-28T01:13:33.043Z,5.85
2023-09-28T01:13:44.452Z,5.35
2023-09-28T01:13:56.171Z,5.30
2023-09-28T01:14:07.994Z,5.68
2023-09-28T01:14:19.542Z,5.65
2023-09-28T01:14:31.926Z,5.55
2023-09-28T01:14:44.115Z,4.90
2023-09-28T01:14:57.451Z,4.82
2023-09-28T01:15:13.030Z,4.82
2023-09-28T01:15:24.572Z,5.00
2023-09-28T01:15:36.018Z,5.10
2023-09-28T01:15:50.344Z,5.40
2023-09-28T01:16:01.859Z,5.53
2023-09-28T01:16:13.440Z,5.28
2023-09-28T01:16:24.949Z,5.50
2023-09-28T01:16:36.409Z,5.50
2023-09-28T01:16:48.990Z,5.68
2023-09-28T01:17:00.629Z,5.57
2023-09-28T01:17:12.092Z,4.97
2023-09-28T01:17:23.632Z,5.10
2023-09-28T01:17:35.444Z,5.50
2023-09-28T01:17:46.990Z,5.70
2023-09-28T01:17:58.783Z,5.32
2023-09-28T01:18:17.884Z,5.22
2023-09-28T01:18:29.367Z,4.90
2023-09-28T01:18:40.788Z,4.80
2023-09-28T01:18:52.606Z,4.90
2023-09-28T01:19:04.237Z,4.93
2023-09-28T01:19:15.830Z,5.32
2023-09-28T01:19:27.280Z,5.40
2023-09-28T01:19:38.847Z,5.25
2023-09-28T01:19:50.381Z,5.28
2023-09-28T01:20:02.538Z,5.20
2023-09-28T01:20:14.155Z,5.68
2023-09-28T01:20:25.845Z,5.72
2023-09-28T01:20:38.141Z,5.80
2023-09-28T01:20:50.887Z,5.55
2023-09-28T01:21:02.314Z,5.43
2023-09-28T01:21:16.625Z,5.55
2023-09-28T01:21:28.021Z,5.47
2023-09-28T01:21:39.537Z,5.07
2023-09-28T01:21:51.038Z,4.82
2023-09-28T01:22:02.537Z,5.10
2023-09-28T01:22:16.932Z,5.53
2023-09-28T01:22:28.409Z,5.78
2023-09-28T01:22:39.962Z,5.75
2023-09-28T01:22:51.892Z,5.32
2023-09-28T01:23:07.194Z,5.15
2023-09-28T01:23:19.313Z,5.22
2023-09-28T01:23:30.829Z,4.85
2023-09-28T01:23:42.374Z,5.00
2023-09-28T01:23:53.919Z,5.00
2023-09-28T01:24:05.816Z,5.50
2023-09-28T01:24:17.676Z,5.35
2023-09-28T01:24:31.939Z,5.25
2023-09-28T01:24:43.444Z,5.15
2023-09-28T01:24:54.913Z,5.55
2023-09-28T01:25:06.899Z,5.20
2023-09-28T01:25:18.570Z,5.03
2023-09-28T01:25:30.151Z,5.25
2023-09-28T01:25:42.359Z,5.50
2023-09-28T01:25:53.952Z,5.50
2023-09-28T01:26:05.465Z,5.13
2023-09-28T01:26:16.944Z,5.25
2023-09-28T01:26:29.191Z,5.25
2023-09-28T01:26:43.523Z,5.43
2023-09-28T01:26:55.139Z,5.60
2023-09-28T01:27:06.669Z,5.40
2023-09-28T01:27:18.147Z,5.25
2023-09-28T01:27:29.635Z,5.40
2023-09-28T01:27:44.819Z,5.40
2023-09-28T01:27:56.318Z,5.18
2023-09-28T01:28:08.650Z,4.88
2023-09-28T01:28:20.108Z,4.88
2023-09-28T01:28:31.531Z,5.10
2023-09-28T01:28:43.065Z,5.07
2023-09-28T01:28:54.622Z,5.30
2023-09-28T01:29:06.095Z,5.35
2023-09-28T01:29:17.610Z,5.20
2023-09-28T01:29:29.039Z,4.93
2023-09-28T01:29:40.496Z,5.13
2023-09-28T01:29:52.089Z,5.22
2023-09-28T01:30:04.764Z,5.68
2023-09-28T01:30:16.277Z,5.90
2023-09-28T01:30:28.301Z,5.72
2023-09-28T01:30:40.310Z,5.38
2023-09-28T01:30:51.828Z,5.50
2023-09-28T01:31:03.418Z,5.72
2023-09-28T01:31:14.883Z,5.63
2023-09-28T01:31:26.317Z,5.28
2023-09-28T01:31:37.977Z,5.35
2023-09-28T01:31:49.472Z,5.22
2023-09-28T01:32:00.992Z,5.53
2023-09-28T01:32:12.485Z,5.30
2023-09-28T01:32:23.883Z,5.25
2023-09-28T01:32:35.268Z,5.10
2023-09-28T01:32:46.731Z,5.18
2023-09-28T01:32:58.624Z,5.28
2023-09-28T01:33:10.288Z,5.45
2023-09-28T01:33:21.910Z,5.65
2023-09-28T01:33:33.469Z,5.53
2023-09-28T01:33:44.927Z,5.45
2023-09-28T01:33:56.928Z,5.10
2023-09-28T01:34:08.648Z,4.95
2023-09-28T01:34:20.089Z,4.93
2023-09-28T01:34:31.587Z,5.10
2023-09-28T01:34:43.089Z,5.43
2023-09-28T01:34:55.041Z,5.65
2023-09-28T01:35:07.560Z,5.57
2023-09-28T01:35:19.578Z,5.80
2023-09-28T01:35:31.163Z,5.40
2023-09-28T01:35:42.848Z,5.35
2023-09-28T01:35:55.096Z,5.28
2023-09-28T01:36:06.620Z,5.40
2023-09-28T01:36:18.071Z,5.30
2023-09-28T01:36:29.855Z,5.30
2023-09-28T01:36:41.376Z,5.18
2023-09-28T01:36:52.818Z,5.30
2023-09-28T01:37:04.241Z,5.20
2023-09-28T01:37:25.862Z,5.13
2023-09-28T01:38:11.495Z,5.28
2023-09-28T01:38:34.029Z,5.07
2023-09-28T01:39:06.339Z,5.30
2023-09-28T01:39:17.764Z,5.90
2023-09-28T01:39:29.359Z,5.57
2023-09-28T01:39:41.103Z,5.20
2023-09-28T01:39:52.475Z,5.25
2023-09-28T01:40:04.368Z,5.25
2023-09-28T01:40:16.061Z,5.30
2023-09-28T01:40:27.860Z,5.13
2023-09-28T01:40:39.636Z,5.22
2023-09-28T01:40:51.362Z,5.30
2023-09-28T01:41:02.857Z,5.47
2023-09-28T01:41:14.365Z,5.32
2023-09-28T01:41:25.823Z,5.38
2023-09-28T01:41:37.280Z,5.32
2023-09-28T01:41:48.789Z,4.97
2023-09-28T01:42:00.177Z,5.10
2023-09-28T01:42:11.650Z,5.38
2023-09-28T01:42:23.100Z,5.38
2023-09-28T01:42:34.531Z,5.15
2023-09-28T01:42:45.947Z,5.13
2023-09-28T01:42:57.607Z,5.03
2023-09-28T01:43:09.054Z,4.80
2023-09-28T01:43:20.572Z,4.88
2023-09-28T01:43:32.078Z,5.00
2023-09-28T01:43:43.497Z,5.47
2023-09-28T01:43:55.216Z,5.65
2023-09-28T01:44:06.806Z,5.72
2023-09-28T01:44:18.626Z,5.47
2023-09-28T01:44:30.134Z,4.88
2023-09-28T01:44:41.604Z,5.15
2023-09-28T01:44:53.096Z,5.35
2023-09-28T01:45:05.296Z,5.38
2023-09-28T01:45:16.890Z,5.30
2023-09-28T01:45:28.885Z,5.13
2023-09-28T01:45:40.344Z,5.30
2023-09-28T01:45:51.836Z,5.47
2023-09-28T01:46:03.372Z,5.78
2023-09-28T01:46:15.041Z,5.38
2023-09-28T01:46:26.570Z,5.10
2023-09-28T01:46:38.185Z,5.03
2023-09-28T01:46:49.942Z,4.97
2023-09-28T01:47:01.590Z,4.83
2023-09-28T01:47:13.180Z,5.30
2023-09-28T01:47:24.664Z,5.07
2023-09-28T01:47:36.459Z,5.20
2023-09-28T01:47:48.023Z,4.93
2023-09-28T01:47:59.578Z,5.30
2023-09-28T01:48:11.078Z,5.22
2023-09-28T01:48:25.623Z,5.28
2023-09-28T01:48:37.179Z,4.85
2023-09-28T01:48:48.725Z,5.22
2023-09-28T01:49:00.152Z,5.63
2023-09-28T01:49:11.567Z,5.45
2023-09-28T01:49:22.996Z,5.50
2023-09-28T01:49:34.395Z,5.30
2023-09-28T01:49:45.895Z,5.18
2023-09-28T01:49:57.453Z,5.03
2023-09-28T01:50:09.372Z,5.10
2023-09-28T01:50:21.002Z,5.22
2023-09-28T01:50:33.525Z,5.05
2023-09-28T01:50:45.000Z,5.10
2023-09-28T01:50:56.507Z,5.35
2023-09-28T01:51:07.986Z,5.35
2023-09-28T01:51:19.416Z,5.15
2023-09-28T01:51:30.843Z,4.78
2023-09-28T01:51:42.313Z,4.95
2023-09-28T01:51:53.692Z,4.78
2023-09-28T01:52:05.188Z,5.25
2023-09-28T01:52:16.688Z,5.13
2023-09-28T01:52:28.174Z,5.30
2023-09-28T01:52:39.822Z,5.25
2023-09-28T01:52:51.475Z,5.28
2023-09-28T01:53:03.253Z,4.88
2023-09-28T01:53:14.884Z,4.82
2023-09-28T01:53:26.430Z,4.82
2023-09-28T01:53:37.981Z,4.93
2023-09-28T01:53:50.214Z,4.97
2023-09-28T01:54:01.691Z,5.22
2023-09-28T01:54:13.091Z,5.60
2023-09-28T01:54:24.521Z,5.65
2023-09-28T01:54:35.915Z,5.55
2023-09-28T01:54:47.385Z,5.43
2023-09-28T01:54:59.408Z,5.63
2023-09-28T01:55:10.927Z,5.35
2023-09-28T01:55:22.371Z,5.10
2023-09-28T01:55:34.161Z,4.78
2023-09-28T01:55:45.546Z,5.18
2023-09-28T01:55:59.464Z,5.35
2023-09-28T01:56:11.064Z,5.18
2023-09-28T01:56:22.557Z,4.65
2023-09-28T01:56:34.080Z,4.68
2023-09-28T01:56:45.532Z,4.90
2023-09-28T01:56:56.976Z,5.35
2023-09-28T01:57:08.524Z,5.65
2023-09-28T01:57:19.938Z,5.63
2023-09-28T01:57:31.741Z,5.10
2023-09-28T01:57:43.248Z,4.70
2023-09-28T01:57:54.642Z,4.88
2023-09-28T01:58:06.241Z,5.00
2023-09-28T01:58:17.771Z,4.75
2023-09-28T01:58:30.364Z,4.47
2023-09-28T01:58:41.809Z,4.70
2023-09-28T01:58:53.321Z,5.07
2023-09-28T01:59:04.857Z,5.43
2023-09-28T01:59:16.578Z,5.25
2023-09-28T01:59:28.157Z,5.30
2023-09-28T01:59:39.677Z,5.17
2023-09-28T01:59:51.112Z,5.28
2023-09-28T02:00:03.584Z,5.40
2023-09-28T02:00:15.365Z,5.28
2023-09-28T02:00:26.919Z,5.03
2023-09-28T02:00:38.353Z,5.10
2023-09-28T02:00:49.770Z,5.30
2023-09-28T02:01:01.246Z,5.28
2023-09-28T02:01:42.173Z,4.90
2023-09-28T02:01:53.834Z,4.47
2023-09-28T02:02:05.390Z,4.63
2023-09-28T02:02:16.904Z,4.97
2023-09-28T02:02:28.359Z,5.20
2023-09-28T02:02:39.903Z,5.00
2023-09-28T02:02:56.270Z,5.00
2023-09-28T02:03:08.085Z,5.30
2023-09-28T02:03:20.245Z,5.20
2023-09-28T02:03:31.822Z,5.25
2023-09-28T02:03:43.282Z,5.32
2023-09-28T02:03:55.011Z,5.38
2023-09-28T02:04:06.652Z,5.10
2023-09-28T02:04:18.035Z,5.10
2023-09-28T02:04:29.422Z,5.22
2023-09-28T02:04:42.342Z,5.20
2023-09-28T02:04:53.899Z,5.35
2023-09-28T02:05:05.456Z,5.40
2023-09-28T02:05:21.451Z,5.50
2023-09-28T02:05:33.162Z,5.00
2023-09-28T02:05:47.157Z,4.95
2023-09-28T02:05:58.625Z,5.20
2023-09-28T02:06:10.167Z,5.53
2023-09-28T02:06:21.577Z,5.45
2023-09-28T02:06:33.089Z,5.30
2023-09-28T02:06:44.607Z,5.03
2023-09-28T02:06:56.089Z,5.55
2023-09-28T02:07:07.490Z,5.32
2023-09-28T02:07:19.471Z,5.00
2023-09-28T02:07:30.880Z,5.03
2023-09-28T02:07:44.065Z,4.85
2023-09-28T02:07:55.559Z,4.82
2023-09-28T02:08:07.053Z,4.85
2023-09-28T02:08:18.637Z,5.03
2023-09-28T02:08:30.192Z,5.07
2023-09-28T02:08:41.644Z,5.20
2023-09-28T02:08:53.073Z,4.93
2023-09-28T02:09:07.623Z,4.88
2023-09-28T02:09:19.057Z,4.82
2023-09-28T02:09:30.538Z,4.90
2023-09-28T02:09:42.056Z,4.93
2023-09-28T02:09:53.510Z,5.10
2023-09-28T02:10:08.021Z,4.90
2023-09-28T02:10:19.503Z,5.18
2023-09-28T02:10:31.034Z,5.55
2023-09-28T02:10:43.892Z,5.53
2023-09-28T02:10:55.459Z,5.28
2023-09-28T02:11:07.056Z,5.30
2023-09-28T02:11:18.496Z,5.40
2023-09-28T02:11:30.030Z,5.85
2023-09-28T02:11:41.572Z,5.75
2023-09-28T02:11:52.968Z,5.70
2023-09-28T02:12:04.652Z,5.95
2023-09-28T02:12:16.327Z,5.75
2023-09-28T02:12:27.774Z,5.40
2023-09-28T02:12:40.771Z,4.90
2023-09-28T02:12:52.321Z,4.90
2023-09-28T02:13:03.937Z,5.00
2023-09-28T02:13:15.355Z,5.22
2023-09-28T02:13:26.828Z,5.37
2023-09-28T02:13:38.312Z,5.53
2023-09-28T02:13:49.774Z,5.05
2023-09-28T02:14:01.251Z,4.95
2023-09-28T02:14:12.759Z,5.22
2023-09-28T02:14:24.529Z,5.22
2023-09-28T02:14:36.152Z,4.90
2023-09-28T02:14:47.540Z,4.80
2023-09-28T02:15:03.270Z,5.13
2023-09-28T02:15:14.782Z,5.40
2023-09-28T02:15:26.743Z,5.32
2023-09-28T02:15:38.490Z,5.40
2023-09-28T02:15:50.175Z,5.30
2023-09-28T02:16:01.652Z,5.40
2023-09-28T02:16:13.205Z,5.40
2023-09-28T02:16:24.984Z,5.47
2023-09-28T02:16:36.451Z,5.20
2023-09-28T02:16:47.977Z,5.28
2023-09-28T02:16:59.828Z,5.53
2023-09-28T02:17:11.315Z,5.80
2023-09-28T02:17:22.789Z,5.43
2023-09-28T02:17:34.340Z,4.93
2023-09-28T02:17:47.136Z,4.50
2023-09-28T02:17:58.734Z,4.32
2023-09-28T02:18:10.223Z,4.30
2023-09-28T02:18:21.757Z,4.80
2023-09-28T02:18:33.142Z,5.22
2023-09-28T02:18:45.084Z,5.20
2023-09-28T02:18:56.630Z,4.88
2023-09-28T02:19:11.688Z,4.63
2023-09-28T02:19:23.223Z,4.82
2023-09-28T02:19:34.657Z,4.80
2023-09-28T02:19:46.112Z,4.72
2023-09-28T02:19:58.694Z,4.68
2023-09-28T02:20:11.011Z,5.00
2023-09-28T02:20:22.616Z,5.35
2023-09-28T02:20:34.257Z,5.47
2023-09-28T02:20:45.729Z,5.60
2023-09-28T02:20:57.206Z,5.47
2023-09-28T02:21:17.920Z,5.03
2023-09-28T02:21:29.390Z,4.65
2023-09-28T02:21:40.903Z,4.60
2023-09-28T02:21:52.481Z,4.53
2023-09-28T02:22:06.485Z,5.03
2023-09-28T02:22:18.254Z,5.07
2023-09-28T02:22:29.732Z,4.78
2023-09-28T02:22:41.154Z,4.88
2023-09-28T02:22:52.789Z,5.05
2023-09-28T02:23:04.471Z,5.18
2023-09-28T02:23:16.046Z,5.03
2023-09-28T02:23:27.509Z,4.75
2023-09-28T02:23:38.980Z,5.10
2023-09-28T02:23:50.399Z,5.15
2023-09-28T02:24:01.863Z,5.00
2023-09-28T02:24:13.387Z,5.13
2023-09-28T02:24:24.792Z,5.40
2023-09-28T02:24:36.216Z,5.32
2023-09-28T02:24:47.630Z,4.82
2023-09-28T02:24:59.094Z,5.10
2023-09-28T02:25:17.446Z,5.13
2023-09-28T02:25:29.295Z,5.00
2023-09-28T02:25:40.807Z,5.40
2023-09-28T02:25:52.383Z,5.43
2023-09-28T02:26:04.906Z,5.35
2023-09-28T02:26:16.392Z,5.30
2023-09-28T02:26:30.838Z,4.95
2023-09-28T02:26:42.259Z,4.90
2023-09-28T02:26:53.684Z,5.25
2023-09-28T02:27:05.159Z,5.25
2023-09-28T02:27:16.548Z,4.97
2023-09-28T02:27:28.100Z,4.40
2023-09-28T02:27:39.635Z,4.75
2023-09-28T02:27:52.438Z,4.95
2023-09-28T02:28:04.097Z,5.05
2023-09-28T02:28:15.509Z,4.97
2023-09-28T02:28:26.978Z,5.22
2023-09-28T02:28:42.223Z,5.30
2023-09-28T02:28:53.741Z,5.15
2023-09-28T02:29:05.315Z,5.10
2023-09-28T02:29:16.929Z,5.30
2023-09-28T02:29:28.390Z,5.25
2023-09-28T02:29:40.144Z,5.28
2023-09-28T02:29:51.958Z,5.10
2023-09-28T02:30:03.832Z,5.28
2023-09-28T02:30:17.350Z,5.15
2023-09-28T02:30:28.834Z,4.88
2023-09-28T02:30:40.244Z,4.68
2023-09-28T02:30:51.748Z,4.55
2023-09-28T02:31:07.424Z,4.88
2023-09-28T02:31:18.913Z,5.25
2023-09-28T02:31:30.365Z,5.32
2023-09-28T02:31:43.081Z,5.18
2023-09-28T02:31:57.613Z,5.18
2023-09-28T02:32:09.230Z,5.00
2023-09-28T02:32:20.773Z,4.95
2023-09-28T02:32:32.472Z,4.95
2023-09-28T02:32:44.247Z,4.85
2023-09-28T02:32:56.029Z,4.90
2023-09-28T02:33:07.881Z,4.78
2023-09-28T02:33:19.415Z,4.72
2023-09-28T02:33:30.863Z,4.75
2023-09-28T02:33:42.226Z,4.78
2023-09-28T02:33:53.735Z,5.05
2023-09-28T02:34:06.680Z,5.05
2023-09-28T02:34:18.058Z,5.28
2023-09-28T02:34:29.505Z,5.28
2023-09-28T02:34:41.077Z,5.50
2023-09-28T02:34:52.583Z,5.53
2023-09-28T02:35:04.400Z,5.47
2023-09-28T02:35:16.315Z,5.13
2023-09-28T02:35:27.812Z,4.63
2023-09-28T02:35:39.274Z,4.65
2023-09-28T02:35:50.813Z,4.73
2023-09-28T02:36:02.373Z,5.18
2023-09-28T02:36:15.306Z,5.25
2023-09-28T02:36:32.823Z,5.05
2023-09-28T02:36:44.341Z,5.03
2023-09-28T02:36:55.765Z,4.97
2023-09-28T02:37:07.405Z,4.80
2023-09-28T02:37:18.847Z,4.82
2023-09-28T02:37:30.228Z,4.90
2023-09-28T02:37:43.328Z,5.00
2023-09-28T02:37:54.776Z,4.93
2023-09-28T02:38:06.255Z,5.10
2023-09-28T02:38:17.695Z,5.45
2023-09-28T02:38:30.070Z,5.90
2023-09-28T02:38:41.575Z,5.65
2023-09-28T02:38:53.532Z,5.40
2023-09-28T02:39:05.220Z,5.45
2023-09-28T02:39:16.715Z,5.32
2023-09-28T02:39:28.915Z,5.43
2023-09-28T02:39:40.309Z,5.13
2023-09-28T02:39:51.772Z,5.15
2023-09-28T02:40:05.157Z,4.95
2023-09-28T02:40:17.634Z,5.18
2023-09-28T02:40:29.053Z,4.97
2023-09-28T02:40:40.453Z,4.88
2023-09-28T02:40:52.109Z,5.15
2023-09-28T02:41:03.592Z,5.13
2023-09-28T02:41:21.812Z,5.03
2023-09-28T02:41:33.291Z,5.03
2023-09-28T02:41:44.672Z,5.05